Terminal Aerodrome Forecast
Issued by NWS

Current Version | Previous Version | Graphics & Text | Print | Product List | Glossary On
Versions: 1 2 3 4 5 6 7 8 9 10 11 12 13 14 15 16 17 18 19 20 21 22 23 24 25
158
FTUS41 KRLX 290249 AAC
TAFCKB
TAF AMD
KCKB 290249Z 2903/2924 22008KT P6SM BKN045
     FM290600 22005KT 3SM SHRA VCTS OVC025CB
     FM290800 24006KT P6SM BKN015
     FM291500 26007KT P6SM SCT025
     FM291700 26008KT P6SM SCT035=

USA.gov is the U.S. government's official web portal to all federal, state and local government web resources and services.